Time;durP1;ratioP1;P1;durP2;ratioP2;P2;SDS_P1;SDS_P2;PMS_P1;PMS_P2;Temp;Humidity;BMP_temperature;BMP_pressure;BME280_temperature;BME280_humidity;BME280_pressure;Samples;Min_cycle;Max_cycle;Signal;HPM_P1;HPM_P2
2022/05/22 00:02:05;;;;;;;4.20;2.40;;;13.40;99.90;;;;;;5037044;28;20191;-58
2022/05/22 00:04:31;;;;;;;2.97;2.15;;;13.30;99.90;;;;;;5055074;28;20199;-58
2022/05/22 00:06:57;;;;;;;4.97;2.83;;;13.30;99.90;;;;;;5055194;28;20179;-58
2022/05/22 00:09:23;;;;;;;2.67;2.38;;;13.40;99.90;;;;;;5054773;28;20210;-59
2022/05/22 00:11:50;;;;;;;4.25;2.50;;;13.40;99.90;;;;;;5054807;28;20355;-59
2022/05/22 00:14:17;;;;;;;3.33;2.63;;;13.50;99.90;;;;;;5054798;28;20179;-58
2022/05/22 00:16:46;;;;;;;2.90;2.60;;;13.40;99.90;;;;;;5054766;28;20532;-58
2022/05/22 00:19:18;;;;;;;3.28;2.38;;;13.40;99.90;;;;;;5054734;28;20266;-58
2022/05/22 00:21:44;;;;;;;3.42;2.50;;;13.40;99.90;;;;;;5054527;28;20183;-58
2022/05/22 00:24:11;;;;;;;6.00;3.05;;;13.30;99.90;;;;;;5054512;28;20631;-59
2022/05/22 00:26:38;;;;;;;3.42;2.53;;;13.30;99.90;;;;;;5054869;28;20265;-58
2022/05/22 00:29:04;;;;;;;3.00;2.70;;;13.20;99.90;;;;;;5054244;28;20292;-58
2022/05/22 00:31:30;;;;;;;4.50;2.80;;;13.10;99.90;;;;;;5054200;28;20179;-58
2022/05/22 00:33:56;;;;;;;4.93;2.90;;;13.00;99.90;;;;;;5053779;28;20668;-58
2022/05/22 00:36:21;;;;;;;3.78;2.83;;;13.10;99.90;;;;;;5054426;28;20533;-58
2022/05/22 00:38:47;;;;;;;3.17;2.88;;;13.10;99.90;;;;;;5054463;28;20258;-59
2022/05/22 00:41:13;;;;;;;3.53;2.60;;;13.10;99.90;;;;;;5054260;28;20175;-58
2022/05/22 00:43:46;;;;;;;4.00;2.70;;;13.10;99.90;;;;;;5054158;28;20179;-58
2022/05/22 00:46:14;;;;;;;5.30;3.20;;;13.00;99.90;;;;;;5054234;28;20554;-59
2022/05/22 00:48:43;;;;;;;4.13;2.67;;;13.00;99.90;;;;;;5053891;28;20536;-58
2022/05/22 00:51:31;;;;;;;4.45;2.60;;;13.00;99.90;;;;;;5053960;28;20662;-58
2022/05/22 00:54:23;;;;;;;3.13;2.47;;;13.00;99.90;;;;;;5053883;28;20171;-59
2022/05/22 00:57:11;;;;;;;3.72;2.42;;;13.10;99.90;;;;;;5054099;28;20559;-58
2022/05/22 00:59:41;;;;;;;3.97;2.63;;;13.00;99.90;;;;;;5053885;28;20174;-59
2022/05/22 01:02:07;;;;;;;4.13;2.80;;;13.00;99.90;;;;;;5053900;28;20186;-58
2022/05/22 01:04:35;;;;;;;3.47;2.65;;;12.90;99.90;;;;;;5053736;28;20266;-59
2022/05/22 01:07:04;;;;;;;3.35;2.90;;;12.90;99.90;;;;;;5053822;28;20510;-58
2022/05/22 01:09:29;;;;;;;3.53;3.00;;;13.00;99.90;;;;;;5053646;28;20215;-58
2022/05/22 01:12:02;;;;;;;4.75;3.08;;;13.00;99.90;;;;;;5053760;28;20175;-58
2022/05/22 01:14:28;;;;;;;4.88;2.85;;;12.90;99.90;;;;;;5053723;28;20518;-58
2022/05/22 01:16:54;;;;;;;2.78;2.55;;;12.80;99.90;;;;;;5053452;28;20171;-58
2022/05/22 01:19:21;;;;;;;3.15;2.42;;;12.80;99.90;;;;;;5053369;28;20186;-58
2022/05/22 01:21:54;;;;;;;3.53;2.83;;;12.70;99.90;;;;;;5053673;28;20172;-58
2022/05/22 01:24:21;;;;;;;3.28;2.72;;;12.70;99.90;;;;;;5053614;28;20202;-58
2022/05/22 01:26:48;;;;;;;2.63;2.42;;;12.80;99.90;;;;;;5053484;28;20209;-58
2022/05/22 01:29:14;;;;;;;2.80;2.30;;;12.80;99.90;;;;;;5053233;28;20198;-58
2022/05/22 01:31:40;;;;;;;3.78;2.58;;;12.70;99.90;;;;;;5052997;28;20663;-58
2022/05/22 01:34:06;;;;;;;2.40;2.20;;;12.80;99.90;;;;;;5035657;28;20175;-58
2022/05/22 01:36:32;;;;;;;2.90;2.40;;;12.80;99.90;;;;;;5035564;28;20187;-58
2022/05/22 01:38:58;;;;;;;4.13;2.67;;;12.80;99.90;;;;;;5053379;28;20202;-58
2022/05/22 01:41:23;;;;;;;4.03;2.60;;;12.80;99.90;;;;;;5053306;28;20176;-58
2022/05/22 01:43:49;;;;;;;3.30;2.40;;;12.90;99.90;;;;;;5053118;28;20278;-58
2022/05/22 01:46:15;;;;;;;3.92;2.83;;;12.80;99.90;;;;;;5053055;28;20233;-58
2022/05/22 01:48:40;;;;;;;3.47;2.70;;;12.70;99.90;;;;;;5053113;28;20274;-58
2022/05/22 01:51:06;;;;;;;2.85;2.38;;;12.60;99.90;;;;;;5053313;28;20633;-58
2022/05/22 01:53:32;;;;;;;3.13;2.60;;;12.70;99.90;;;;;;5053282;28;20587;-58
2022/05/22 01:55:59;;;;;;;3.53;2.72;;;12.70;99.90;;;;;;5053105;28;20175;-59
2022/05/22 01:58:25;;;;;;;3.40;2.65;;;12.70;99.90;;;;;;5053012;28;20171;-58
2022/05/22 02:00:51;;;;;;;4.20;2.97;;;12.70;99.90;;;;;;5052823;28;20522;-57
2022/05/22 02:03:18;;;;;;;2.92;2.53;;;12.70;99.90;;;;;;5053096;28;20167;-57
2022/05/22 02:05:44;;;;;;;4.05;2.35;;;12.60;99.90;;;;;;5053111;28;20197;-57
2022/05/22 02:08:19;;;;;;;3.55;2.42;;;12.50;99.90;;;;;;5053112;28;20202;-58
2022/05/22 02:10:47;;;;;;;4.15;2.33;;;12.50;99.90;;;;;;5052890;28;20206;-58
2022/05/22 02:13:16;;;;;;;3.40;2.30;;;12.50;99.90;;;;;;5052823;28;20176;-58
2022/05/22 02:15:44;;;;;;;4.63;2.97;;;12.40;99.90;;;;;;5053044;28;20240;-58
2022/05/22 02:18:09;;;;;;;3.95;2.38;;;12.40;99.90;;;;;;5053137;28;20250;-58
2022/05/22 02:20:35;;;;;;;3.13;2.83;;;12.40;99.90;;;;;;5052955;28;20182;-58
2022/05/22 02:23:01;;;;;;;3.08;2.47;;;12.40;99.90;;;;;;5052958;28;20179;-58
2022/05/22 02:25:33;;;;;;;3.50;2.58;;;12.30;99.90;;;;;;5052851;28;20278;-57
2022/05/22 02:27:59;;;;;;;4.72;2.67;;;12.30;99.90;;;;;;5052672;28;20222;-58
2022/05/22 02:30:28;;;;;;;3.28;2.80;;;12.20;99.90;;;;;;5052778;28;20227;-58
2022/05/22 02:32:54;;;;;;;2.70;2.30;;;12.20;99.90;;;;;;5052806;28;20230;-58
2022/05/22 02:35:20;;;;;;;3.35;2.53;;;12.20;99.90;;;;;;5052724;28;20254;-58
2022/05/22 02:37:51;;;;;;;3.25;2.28;;;12.20;99.90;;;;;;5052944;28;20176;-58
2022/05/22 02:40:21;;;;;;;2.55;2.22;;;12.20;99.90;;;;;;5052574;28;20171;-57
2022/05/22 02:42:48;;;;;;;4.63;2.60;;;12.20;99.90;;;;;;5052613;28;20708;-58
2022/05/22 02:45:16;;;;;;;4.10;2.55;;;12.20;99.90;;;;;;5052911;28;20651;-58
2022/05/22 02:47:42;;;;;;;3.10;2.55;;;12.10;99.90;;;;;;5052655;28;20207;-58
2022/05/22 02:50:10;;;;;;;2.55;2.35;;;12.10;99.90;;;;;;5052608;28;20643;-57
2022/05/22 02:52:36;;;;;;;3.70;2.35;;;12.00;99.90;;;;;;5052542;28;20180;-58
2022/05/22 02:55:03;;;;;;;2.25;1.92;;;12.00;99.90;;;;;;5052348;28;20222;-58
2022/05/22 02:57:28;;;;;;;3.38;2.47;;;12.00;99.90;;;;;;5037963;28;20183;-57
2022/05/22 02:59:55;;;;;;;3.97;2.58;;;11.90;99.90;;;;;;5056285;28;20187;-58
2022/05/22 03:02:21;;;;;;;3.20;2.10;;;11.90;99.90;;;;;;5055992;28;20195;-57
2022/05/22 03:04:47;;;;;;;3.38;2.63;;;11.90;99.90;;;;;;5056113;28;20688;-58
2022/05/22 03:07:15;;;;;;;2.47;2.15;;;11.90;99.90;;;;;;5055858;28;20652;-58
2022/05/22 03:09:42;;;;;;;3.58;2.50;;;11.80;99.90;;;;;;5038013;28;20735;-58
2022/05/22 03:12:15;;;;;;;2.97;2.42;;;11.70;99.90;;;;;;5056033;28;20179;-57
2022/05/22 03:14:46;;;;;;;3.90;2.17;;;11.80;99.90;;;;;;5055988;28;20168;-57
2022/05/22 03:17:11;;;;;;;3.60;2.40;;;11.80;99.90;;;;;;5056007;28;20578;-58
2022/05/22 03:19:37;;;;;;;3.88;2.30;;;11.80;99.90;;;;;;5055718;28;20183;-58
2022/05/22 03:22:05;;;;;;;3.17;2.40;;;11.80;99.90;;;;;;5055624;28;20535;-58
2022/05/22 03:24:31;;;;;;;2.67;2.08;;;11.70;99.90;;;;;;5055877;28;20632;-57
2022/05/22 03:26:56;;;;;;;3.65;2.35;;;11.70;99.90;;;;;;5055740;28;20306;-58
2022/05/22 03:29:22;;;;;;;2.97;2.22;;;11.60;99.90;;;;;;5055661;28;20199;-59
2022/05/22 03:31:48;;;;;;;3.22;2.47;;;11.60;99.90;;;;;;5055564;28;20528;-58
2022/05/22 03:34:14;;;;;;;2.97;2.22;;;11.60;99.90;;;;;;5055716;28;20179;-58
2022/05/22 03:36:40;;;;;;;2.33;2.13;;;11.60;99.90;;;;;;5055334;28;20186;-58
2022/05/22 03:39:06;;;;;;;3.90;2.50;;;11.60;99.90;;;;;;5055517;28;20179;-58
2022/05/22 03:41:31;;;;;;;2.65;2.28;;;11.60;99.90;;;;;;5055548;28;20179;-58
2022/05/22 03:43:57;;;;;;;2.53;2.33;;;11.50;99.90;;;;;;5037485;28;20179;-59
2022/05/22 03:46:23;;;;;;;3.67;2.50;;;11.50;99.90;;;;;;5055208;28;20179;-58
2022/05/22 03:48:48;;;;;;;4.35;2.42;;;11.50;99.90;;;;;;5037313;28;20587;-57
2022/05/22 03:51:14;;;;;;;2.75;2.10;;;11.40;99.90;;;;;;5055073;28;20179;-57
2022/05/22 03:53:40;;;;;;;2.92;2.38;;;11.50;99.90;;;;;;5055324;28;20643;-58
2022/05/22 03:56:14;;;;;;;2.30;1.90;;;11.50;99.90;;;;;;5055261;28;20180;-58
2022/05/22 03:58:41;;;;;;;4.70;2.40;;;11.50;99.90;;;;;;5054974;28;20171;-58
2022/05/22 04:01:07;;;;;;;4.35;2.30;;;11.50;99.90;;;;;;5037128;28;20641;-58
2022/05/22 04:03:34;;;;;;;2.63;2.15;;;11.60;99.90;;;;;;5055372;28;20201;-60
2022/05/22 04:06:01;;;;;;;3.30;2.38;;;11.60;99.90;;;;;;5055096;28;20179;-58
2022/05/22 04:08:28;;;;;;;2.60;2.40;;;11.60;99.90;;;;;;5053865;28;20206;-58
2022/05/22 04:10:54;;;;;;;3.60;2.45;;;11.60;99.90;;;;;;5054773;28;20207;-58
2022/05/22 04:13:20;;;;;;;2.90;2.15;;;11.50;99.90;;;;;;5037045;28;20194;-58
2022/05/22 04:15:46;;;;;;;3.25;2.60;;;11.60;99.90;;;;;;5054679;28;20583;-59
2022/05/22 04:18:12;;;;;;;3.70;2.15;;;11.60;99.90;;;;;;5054531;28;20204;-58
2022/05/22 04:20:38;;;;;;;3.20;2.15;;;11.60;99.90;;;;;;5036894;28;20191;-58
2022/05/22 04:25:56;;;;;;;2.97;2.40;;;11.70;99.90;;;;;;5054787;28;20210;-58
2022/05/22 04:28:27;;;;;;;3.58;2.63;;;11.70;99.90;;;;;;5054460;28;20168;-58
2022/05/22 04:30:53;;;;;;;3.45;2.15;;;11.60;99.90;;;;;;5054488;28;20738;-58
2022/05/22 04:33:18;;;;;;;3.80;2.55;;;11.70;99.90;;;;;;5054446;28;20275;-58
2022/05/22 04:35:44;;;;;;;4.03;2.35;;;11.80;99.90;;;;;;5054439;28;20254;-58
2022/05/22 04:38:11;;;;;;;3.00;2.50;;;11.80;99.90;;;;;;5054289;28;20655;-58
2022/05/22 04:40:41;;;;;;;2.88;2.40;;;11.90;99.90;;;;;;5054221;28;20187;-58
2022/05/22 04:43:09;;;;;;;2.78;2.38;;;11.90;99.90;;;;;;5054090;28;20270;-58
2022/05/22 04:45:38;;;;;;;3.35;2.42;;;11.90;99.90;;;;;;5054255;28;20237;-58
2022/05/22 04:48:04;;;;;;;5.68;2.80;;;12.00;99.90;;;;;;5054306;28;20163;-58
2022/05/22 04:50:30;;;;;;;3.65;2.85;;;11.90;99.90;;;;;;5053858;28;20210;-58
2022/05/22 04:52:56;;;;;;;3.90;2.35;;;11.90;99.90;;;;;;5053924;28;20270;-58
2022/05/22 04:55:22;;;;;;;3.80;2.40;;;11.90;99.90;;;;;;5053834;28;20754;-59
2022/05/22 04:57:48;;;;;;;2.92;2.40;;;12.00;99.90;;;;;;5053777;28;20266;-58
2022/05/22 05:00:14;;;;;;;2.97;2.50;;;12.10;99.90;;;;;;5036004;28;20228;-58
2022/05/22 05:02:40;;;;;;;5.05;2.95;;;12.10;99.90;;;;;;5053895;28;20698;-58
2022/05/22 05:05:08;;;;;;;3.42;2.63;;;12.20;99.90;;;;;;5053901;28;20171;-58
2022/05/22 05:07:38;;;;;;;2.97;2.58;;;12.20;99.90;;;;;;5053721;28;20781;-58
2022/05/22 05:10:05;;;;;;;3.42;2.50;;;12.40;99.90;;;;;;5053556;28;20371;-58
2022/05/22 05:12:32;;;;;;;3.97;2.80;;;12.50;99.90;;;;;;5053572;28;20514;-58
2022/05/22 05:14:58;;;;;;;2.78;2.33;;;12.70;99.90;;;;;;5053762;28;20624;-58
2022/05/22 05:17:24;;;;;;;2.60;2.20;;;12.80;99.90;;;;;;5053800;28;20233;-58
2022/05/22 05:19:49;;;;;;;2.83;2.45;;;12.90;99.90;;;;;;5053241;28;20241;-58
2022/05/22 05:22:15;;;;;;;2.78;2.42;;;13.00;99.90;;;;;;5035856;28;20233;-58
2022/05/22 05:24:41;;;;;;;3.20;2.90;;;13.20;99.90;;;;;;5053448;28;20178;-58
2022/05/22 05:27:07;;;;;;;2.85;2.50;;;13.20;99.90;;;;;;5035502;28;20210;-58
2022/05/22 05:29:32;;;;;;;3.20;2.50;;;13.40;99.90;;;;;;5053419;28;20199;-59
2022/05/22 05:31:58;;;;;;;3.47;2.30;;;13.40;99.90;;;;;;5053241;28;20544;-59
2022/05/22 05:34:24;;;;;;;3.58;2.50;;;13.60;99.90;;;;;;5053398;28;20268;-58
2022/05/22 05:36:50;;;;;;;4.32;2.20;;;13.60;99.90;;;;;;5053244;28;20629;-59
2022/05/22 05:39:15;;;;;;;4.13;2.50;;;13.80;99.90;;;;;;5053216;28;20182;-58
2022/05/22 05:41:41;;;;;;;3.60;2.63;;;13.80;99.90;;;;;;5053053;28;20186;-58
2022/05/22 05:44:07;;;;;;;4.30;2.20;;;14.00;99.90;;;;;;5053302;28;20205;-58
2022/05/22 05:46:34;;;;;;;3.95;2.45;;;14.00;99.90;;;;;;5053232;28;20229;-59
2022/05/22 05:49:00;;;;;;;2.85;2.45;;;14.20;99.90;;;;;;5053256;28;20544;-58
2022/05/22 05:51:26;;;;;;;3.83;2.70;;;14.20;99.90;;;;;;5053173;28;20179;-58
2022/05/22 05:53:52;;;;;;;2.38;2.17;;;14.30;99.90;;;;;;5053035;28;20167;-58
2022/05/22 05:56:18;;;;;;;3.78;2.63;;;14.40;99.90;;;;;;5053070;28;20163;-58
2022/05/22 05:58:43;;;;;;;2.30;1.83;;;14.60;99.90;;;;;;5053101;28;20203;-58
2022/05/22 06:01:14;;;;;;;2.78;2.53;;;14.70;99.90;;;;;;5053087;28;20202;-59
2022/05/22 06:03:40;;;;;;;3.63;2.70;;;14.80;99.90;;;;;;5035408;28;20175;-58
2022/05/22 06:06:07;;;;;;;4.00;2.95;;;14.90;99.90;;;;;;5053260;28;20615;-58
2022/05/22 06:08:33;;;;;;;3.50;2.35;;;15.10;99.90;;;;;;5052867;28;20172;-59
2022/05/22 06:10:58;;;;;;;3.25;2.30;;;15.10;99.90;;;;;;5052721;28;20536;-59
2022/05/22 06:13:24;;;;;;;2.80;2.33;;;15.10;99.90;;;;;;5053009;28;20668;-58
2022/05/22 06:15:50;;;;;;;2.95;2.10;;;15.20;99.90;;;;;;5052969;28;20537;-58
2022/05/22 06:18:16;;;;;;;2.95;2.33;;;15.20;99.90;;;;;;5052915;28;20179;-58
2022/05/22 06:20:41;;;;;;;3.20;2.22;;;15.30;99.90;;;;;;5052771;28;20257;-58
2022/05/22 06:23:08;;;;;;;2.72;2.25;;;15.40;99.90;;;;;;5052708;28;20171;-59
2022/05/22 06:25:35;;;;;;;3.20;2.58;;;15.50;99.90;;;;;;5052858;28;20217;-59
2022/05/22 06:28:01;;;;;;;3.85;2.72;;;15.40;99.90;;;;;;5052987;28;20206;-58
2022/05/22 06:30:27;;;;;;;3.25;2.10;;;15.60;99.90;;;;;;5035054;28;20751;-58
2022/05/22 06:32:53;;;;;;;5.30;2.53;;;15.70;99.90;;;;;;5056750;28;20559;-58
2022/05/22 06:35:20;;;;;;;5.03;2.00;;;15.70;99.90;;;;;;5056611;28;20198;-58
2022/05/22 06:37:45;;;;;;;2.63;2.00;;;16.00;99.90;;;;;;5056466;28;20175;-58
2022/05/22 06:40:12;;;;;;;2.75;2.45;;;16.20;99.90;;;;;;5056492;28;20580;-58
2022/05/22 06:42:42;;;;;;;2.75;1.80;;;16.40;99.90;;;;;;5056619;28;20176;-58
2022/05/22 06:45:15;;;;;;;2.28;1.60;;;16.50;99.90;;;;;;5056569;28;20258;-59
2022/05/22 06:47:43;;;;;;;3.53;2.15;;;16.70;99.90;;;;;;5056437;28;20169;-58
2022/05/22 06:50:13;;;;;;;4.35;2.35;;;16.90;99.90;;;;;;5056159;28;20234;-60
2022/05/22 06:52:39;;;;;;;2.88;2.10;;;16.90;99.90;;;;;;5056240;28;20578;-58
2022/05/22 06:55:06;;;;;;;3.08;1.92;;;16.90;99.90;;;;;;5056315;28;20186;-59
2022/05/22 06:57:32;;;;;;;4.25;2.10;;;17.10;99.90;;;;;;5056162;28;20171;-58
2022/05/22 06:59:59;;;;;;;2.42;2.03;;;17.20;99.90;;;;;;5055852;28;20175;-56
2022/05/22 07:02:27;;;;;;;2.13;1.92;;;17.20;99.90;;;;;;5056157;28;20660;-59
2022/05/22 07:04:56;;;;;;;3.42;1.80;;;17.40;99.90;;;;;;5055819;28;20171;-58
2022/05/22 07:07:22;;;;;;;3.38;2.00;;;17.30;99.90;;;;;;5038302;28;20179;-59
2022/05/22 07:09:48;;;;;;;2.72;1.92;;;17.80;99.90;;;;;;5056059;28;20207;-58
2022/05/22 07:12:15;;;;;;;4.88;1.98;;;18.20;99.90;;;;;;5055952;28;20182;-58
2022/05/22 07:14:42;;;;;;;2.47;1.92;;;18.20;99.90;;;;;;5055888;28;20171;-58
2022/05/22 07:17:10;;;;;;;2.05;1.20;;;18.40;99.90;;;;;;5055785;28;20258;-58
2022/05/22 07:19:37;;;;;;;3.05;1.52;;;18.70;99.90;;;;;;5055589;28;20179;-58
2022/05/22 07:22:04;;;;;;;2.15;1.65;;;18.50;99.90;;;;;;5055796;28;20648;-58
2022/05/22 07:24:30;;;;;;;1.98;1.40;;;18.60;99.90;;;;;;5056049;28;20211;-58
2022/05/22 07:26:56;;;;;;;1.65;1.42;;;18.60;99.90;;;;;;5055756;28;20222;-58
2022/05/22 07:29:21;;;;;;;2.42;1.40;;;18.70;99.90;;;;;;5055552;28;20211;-58
2022/05/22 07:31:47;;;;;;;2.30;1.60;;;18.80;99.90;;;;;;5055503;28;20266;-58
2022/05/22 07:34:13;;;;;;;3.03;1.63;;;18.70;99.90;;;;;;5055393;28;20202;-58
2022/05/22 07:36:38;;;;;;;2.72;1.55;;;18.90;99.90;;;;;;5055559;28;20210;-58
2022/05/22 07:39:04;;;;;;;2.38;1.60;;;19.00;99.90;;;;;;5055497;28;20163;-58
2022/05/22 07:41:31;;;;;;;1.95;1.67;;;18.90;99.90;;;;;;5055209;28;20187;-59
2022/05/22 07:43:58;;;;;;;1.92;1.35;;;18.90;99.90;;;;;;5055280;28;20632;-59
2022/05/22 07:46:24;;;;;;;2.00;1.65;;;19.20;99.90;;;;;;5055277;28;20202;-59
2022/05/22 07:48:50;;;;;;;2.40;1.60;;;19.40;99.90;;;;;;5055041;28;20664;-59
2022/05/22 07:51:15;;;;;;;1.88;1.52;;;19.40;99.90;;;;;;5055341;28;20175;-58
2022/05/22 07:53:41;;;;;;;1.95;1.38;;;19.60;99.90;;;;;;5055229;28;20190;-59
2022/05/22 07:56:08;;;;;;;3.83;1.77;;;19.70;99.90;;;;;;5055189;28;20171;-59
2022/05/22 07:58:34;;;;;;;3.55;1.38;;;19.70;99.90;;;;;;5055116;28;20528;-59
2022/05/22 08:01:00;;;;;;;2.30;1.05;;;19.80;99.90;;;;;;5055144;28;20194;-60
2022/05/22 08:03:26;;;;;;;1.92;1.20;;;20.00;99.90;;;;;;5055181;28;20179;-59
2022/05/22 08:05:54;;;;;;;1.70;1.20;;;20.00;99.90;;;;;;5054982;28;20539;-58
2022/05/22 08:08:19;;;;;;;1.20;1.00;;;19.90;99.90;;;;;;5055005;28;20679;-58
2022/05/22 08:10:46;;;;;;;1.73;1.05;;;20.00;99.90;;;;;;5054806;28;20294;-60
2022/05/22 08:13:13;;;;;;;2.05;1.30;;;20.20;99.90;;;;;;5054792;28;20298;-59
2022/05/22 08:15:41;;;;;;;3.10;1.30;;;20.10;99.90;;;;;;5054594;28;20176;-59
2022/05/22 08:18:07;;;;;;;2.70;1.40;;;20.20;99.90;;;;;;5054844;28;20173;-58
2022/05/22 08:20:34;;;;;;;3.25;1.80;;;20.20;99.90;;;;;;5054733;28;20195;-59
2022/05/22 08:23:04;;;;;;;4.90;1.77;;;20.30;99.90;;;;;;5054624;28;20268;-58
2022/05/22 08:25:30;;;;;;;1.95;1.38;;;20.30;99.90;;;;;;5054620;28;20258;-59
2022/05/22 08:27:57;;;;;;;3.08;1.63;;;20.20;99.90;;;;;;5054442;28;20646;-58
2022/05/22 08:30:25;;;;;;;2.90;1.75;;;20.30;99.90;;;;;;5036237;28;20223;-58
2022/05/22 08:32:52;;;;;;;2.40;1.30;;;20.50;99.90;;;;;;5054395;28;20171;-59
2022/05/22 08:35:22;;;;;;;2.30;1.33;;;20.50;99.90;;;;;;5054316;28;20655;-59
2022/05/22 08:37:48;;;;;;;2.83;1.50;;;20.40;99.90;;;;;;5054265;28;20533;-59
2022/05/22 08:40:16;;;;;;;1.45;1.35;;;20.60;99.90;;;;;;5054239;28;20186;-58
2022/05/22 08:42:47;;;;;;;2.58;1.75;;;20.90;99.90;;;;;;5054058;28;20198;-59
2022/05/22 08:45:22;;;;;;;2.58;1.50;;;20.90;99.90;;;;;;5054365;28;20182;-59
2022/05/22 08:47:59;;;;;;;2.78;1.65;;;20.90;99.90;;;;;;5054465;28;20173;-59
2022/05/22 08:50:27;;;;;;;2.22;1.38;;;20.80;99.90;;;;;;5054105;28;20198;-59
2022/05/22 08:52:56;;;;;;;3.15;1.73;;;20.90;99.90;;;;;;5053866;28;20186;-59
2022/05/22 08:58:56;;;;;;;2.75;1.67;;;21.00;99.90;;;;;;5053328;28;20229;-59
2022/05/22 09:01:25;;;;;;;1.55;1.38;;;20.80;99.90;;;;;;5053610;28;20206;-58
2022/05/22 09:04:17;;;;;;;1.50;1.25;;;21.00;99.90;;;;;;5048101;28;20195;-59
2022/05/22 09:07:22;;;;;;;2.63;2.08;;;21.50;99.90;;;;;;5053932;28;20182;-58
2022/05/22 09:10:00;;;;;;;3.53;1.60;;;21.20;99.20;;;;;;5053757;28;20232;-59
2022/05/22 09:13:03;;;;;;;3.55;1.50;;;21.40;99.90;;;;;;5053849;28;20179;-58
2022/05/22 09:15:52;;;;;;;1.77;1.67;;;21.70;99.90;;;;;;5053692;28;20171;-59
2022/05/22 09:18:34;;;;;;;1.60;1.42;;;21.30;99.90;;;;;;5053504;28;20643;-58
2022/05/22 09:21:06;;;;;;;2.00;1.60;;;21.30;99.90;;;;;;5035722;28;20189;-59
2022/05/22 09:23:57;;;;;;;2.63;1.60;;;21.50;99.90;;;;;;5053579;28;20183;-58
2022/05/22 09:26:28;;;;;;;4.38;1.80;;;21.40;99.90;;;;;;5053475;28;20715;-59
2022/05/22 09:29:31;;;;;;;3.13;1.65;;;21.70;99.90;;;;;;5053217;28;20529;-58
2022/05/22 09:32:00;;;;;;;2.20;1.80;;;21.90;99.90;;;;;;5053400;28;20225;-58
2022/05/22 09:35:05;;;;;;;2.05;1.48;;;21.80;99.90;;;;;;5053435;28;20163;-58
2022/05/22 09:37:42;;;;;;;2.95;2.10;;;22.00;99.90;;;;;;5053469;28;20178;-58
2022/05/22 09:40:28;;;;;;;4.07;2.05;;;21.70;99.70;;;;;;5053529;28;20693;-58
2022/05/22 09:42:54;;;;;;;1.52;1.40;;;21.60;99.90;;;;;;5053189;28;20528;-59
2022/05/22 09:45:48;;;;;;;2.55;1.80;;;21.50;99.60;;;;;;5053145;28;20175;-59
2022/05/22 09:48:13;;;;;;;2.47;1.60;;;21.80;99.20;;;;;;5053338;28;20335;-58
2022/05/22 09:50:39;;;;;;;3.25;1.63;;;21.90;99.40;;;;;;5053108;28;20286;-58
2022/05/22 09:53:11;;;;;;;2.65;1.58;;;22.20;99.90;;;;;;5053173;28;20201;-58
2022/05/22 09:55:51;;;;;;;2.17;1.13;;;22.10;98.70;;;;;;5053154;28;20189;-59
2022/05/22 09:58:26;;;;;;;2.17;1.73;;;22.10;98.90;;;;;;5053001;28;20179;-58
2022/05/22 10:00:57;;;;;;;1.75;1.60;;;21.90;98.10;;;;;;5052875;28;20182;-58
2022/05/22 10:03:57;;;;;;;2.55;1.50;;;22.10;99.10;;;;;;5053130;28;20210;-58
2022/05/22 10:06:34;;;;;;;1.52;0.95;;;22.00;98.40;;;;;;5054707;28;20171;-58
2022/05/22 10:09:20;;;;;;;1.88;1.05;;;22.40;97.20;;;;;;5056938;28;20179;-59
2022/05/22 10:12:01;;;;;;;1.00;0.88;;;22.70;98.70;;;;;;5057208;28;20185;-58
2022/05/22 10:14:35;;;;;;;1.60;1.30;;;22.60;98.50;;;;;;5039052;28;20644;-58
2022/05/22 10:17:20;;;;;;;2.97;1.23;;;22.40;96.60;;;;;;5057168;28;20667;-58
2022/05/22 10:20:00;;;;;;;3.58;1.30;;;22.50;98.50;;;;;;5056967;28;20183;-59
2022/05/22 10:22:31;;;;;;;1.63;1.20;;;22.80;99.20;;;;;;5056879;28;20261;-59
2022/05/22 10:25:15;;;;;;;1.38;1.02;;;23.00;98.10;;;;;;5056697;28;20171;-59
2022/05/22 10:27:44;;;;;;;2.05;1.15;;;22.90;95.20;;;;;;5056864;28;20688;-58
2022/05/22 10:30:30;;;;;;;1.85;0.75;;;22.70;96.20;;;;;;5056435;28;20691;-59
2022/05/22 10:33:07;;;;;;;1.63;1.13;;;22.80;96.30;;;;;;5056776;28;20191;-58
2022/05/22 10:35:41;;;;;;;1.45;1.20;;;22.90;96.60;;;;;;5056696;28;20167;-59
2022/05/22 10:38:16;;;;;;;1.25;0.90;;;22.80;94.90;;;;;;5056744;28;20167;-58
2022/05/22 10:43:39;;;;;;;1.45;0.80;;;23.10;96.40;;;;;;5056743;28;20675;-59
2022/05/22 10:46:05;;;;;;;2.47;0.90;;;23.10;95.20;;;;;;5056618;28;20595;-58
2022/05/22 10:48:33;;;;;;;1.08;0.98;;;23.20;96.00;;;;;;5056503;28;20596;-58
2022/05/22 10:51:11;;;;;;;1.42;0.85;;;23.00;95.20;;;;;;5056287;28;20249;-58
2022/05/22 10:53:52;;;;;;;1.55;0.88;;;23.20;95.50;;;;;;5056349;28;20175;-58
2022/05/22 10:56:21;;;;;;;1.80;0.90;;;23.30;94.20;;;;;;5056224;28;20513;-59
2022/05/22 10:59:04;;;;;;;1.80;0.60;;;23.40;93.40;;;;;;5056314;28;20575;-59
2022/05/22 11:01:35;;;;;;;0.75;0.63;;;23.50;93.90;;;;;;5056049;28;20210;-59
2022/05/22 11:04:14;;;;;;;2.50;0.77;;;23.60;95.10;;;;;;5056194;28;20193;-58
2022/05/22 11:06:56;;;;;;;2.42;1.17;;;23.50;93.80;;;;;;5055979;28;20229;-59
2022/05/22 11:09:28;;;;;;;2.38;0.90;;;23.20;92.50;;;;;;5056114;28;20195;-60
2022/05/22 11:12:07;;;;;;;1.27;0.57;;;23.30;94.40;;;;;;5056141;28;20221;-59
2022/05/22 11:14:35;;;;;;;0.77;0.65;;;23.50;93.50;;;;;;5055976;28;20576;-60
2022/05/22 11:17:13;;;;;;;2.83;1.08;;;23.60;93.00;;;;;;5055187;28;20187;-58
2022/05/22 11:19:41;;;;;;;1.45;0.80;;;23.50;91.90;;;;;;5056217;28;20182;-59
2022/05/22 11:22:15;;;;;;;1.40;0.77;;;23.50;88.80;;;;;;5055953;28;20266;-59
2022/05/22 11:25:06;;;;;;;0.93;0.90;;;23.50;90.20;;;;;;5055746;28;20175;-59
2022/05/22 11:27:59;;;;;;;2.65;0.90;;;23.50;91.20;;;;;;5055605;28;20650;-58
2022/05/22 11:30:49;;;;;;;0.98;0.77;;;23.10;91.40;;;;;;5055569;28;20265;-58
2022/05/22 11:33:47;;;;;;;1.35;0.80;;;23.20;91.90;;;;;;5055532;28;20179;-59
2022/05/22 11:36:32;;;;;;;2.33;1.10;;;23.20;90.20;;;;;;5055633;28;20205;-59
2022/05/22 11:39:16;;;;;;;1.13;0.80;;;23.30;92.40;;;;;;5055582;28;20632;-59
2022/05/22 11:41:52;;;;;;;2.72;0.90;;;23.40;92.20;;;;;;5055456;28;20199;-58
2022/05/22 11:44:50;;;;;;;1.45;1.05;;;23.60;93.20;;;;;;5055608;28;20178;-58
2022/05/22 11:47:37;;;;;;;1.30;1.00;;;23.20;91.10;;;;;;5055851;28;20164;-59
2022/05/22 11:50:14;;;;;;;2.03;0.88;;;23.30;91.90;;;;;;5055066;28;20206;-58
2022/05/22 11:52:55;;;;;;;1.40;0.95;;;23.30;92.70;;;;;;5055414;28;20213;-58
2022/05/22 11:55:38;;;;;;;1.05;0.80;;;23.50;92.80;;;;;;5055417;28;20171;-61
2022/05/22 11:58:20;;;;;;;2.25;1.10;;;23.70;91.90;;;;;;5055086;28;20175;-59
2022/05/22 12:00:58;;;;;;;2.20;0.90;;;23.50;90.90;;;;;;5055268;28;20261;-59
2022/05/22 12:03:57;;;;;;;1.17;0.90;;;23.70;91.20;;;;;;5055081;28;20174;-59
2022/05/22 12:06:47;;;;;;;3.00;1.00;;;23.90;92.10;;;;;;5055341;28;20182;-58
2022/05/22 12:09:31;;;;;;;1.20;0.73;;;23.60;88.90;;;;;;5054771;28;20262;-59
2022/05/22 12:12:20;;;;;;;3.40;0.93;;;23.90;91.30;;;;;;5055211;28;20254;-59
2022/05/22 12:14:54;;;;;;;1.27;0.80;;;24.10;92.00;;;;;;5055039;28;20628;-59
2022/05/22 12:17:32;;;;;;;1.73;1.00;;;24.20;91.70;;;;;;5054675;28;20228;-59
2022/05/22 12:20:31;;;;;;;1.77;1.08;;;24.10;90.80;;;;;;5054895;28;20260;-59
2022/05/22 12:23:17;;;;;;;1.88;1.20;;;24.00;90.70;;;;;;5054679;28;20175;-61
2022/05/22 12:25:58;;;;;;;2.83;0.90;;;24.00;90.80;;;;;;5055115;28;20176;-60
2022/05/22 12:28:36;;;;;;;1.23;0.90;;;23.80;88.40;;;;;;5053840;28;20198;-59
2022/05/22 12:31:06;;;;;;;1.40;1.02;;;23.80;91.20;;;;;;5054424;28;20218;-59
2022/05/22 12:33:34;;;;;;;1.50;0.95;;;23.60;90.10;;;;;;5054462;28;20167;-59
2022/05/22 12:36:04;;;;;;;2.28;0.82;;;23.60;90.30;;;;;;5054436;28;20180;-61
2022/05/22 12:38:29;;;;;;;1.67;1.35;;;23.60;91.10;;;;;;5054236;28;20170;-60
2022/05/22 12:41:12;;;;;;;0.85;0.80;;;23.70;90.80;;;;;;5054394;28;20171;-60
2022/05/22 12:43:40;;;;;;;1.40;0.93;;;23.70;89.10;;;;;;5054305;28;20167;-59
2022/05/22 12:46:09;;;;;;;1.27;0.98;;;24.00;90.50;;;;;;5054102;28;20181;-59
2022/05/22 12:48:35;;;;;;;3.53;0.95;;;23.90;86.30;;;;;;5053958;28;20238;-60
2022/05/22 12:51:10;;;;;;;1.42;1.00;;;23.80;85.40;;;;;;5054188;28;20306;-59
2022/05/22 12:53:38;;;;;;;1.50;0.80;;;23.90;83.30;;;;;;5054149;28;20209;-59
2022/05/22 12:56:36;;;;;;;1.15;0.93;;;23.90;87.40;;;;;;5054102;28;20167;-59
2022/05/22 12:59:24;;;;;;;1.33;0.88;;;24.10;86.70;;;;;;5054275;28;20576;-59
2022/05/22 13:01:55;;;;;;;0.85;0.80;;;24.20;84.30;;;;;;5053415;28;20222;-59
2022/05/22 13:04:23;;;;;;;0.88;0.88;;;23.80;81.70;;;;;;5053907;28;20528;-60
2022/05/22 13:07:07;;;;;;;2.28;1.15;;;23.80;84.00;;;;;;5053820;28;20167;-59
2022/05/22 13:09:51;;;;;;;1.60;1.10;;;24.10;87.60;;;;;;5053609;28;20245;-61
2022/05/22 13:12:16;;;;;;;2.75;0.93;;;24.20;86.70;;;;;;5053859;28;20175;-59
2022/05/22 13:14:48;;;;;;;2.40;0.93;;;24.20;84.80;;;;;;5053911;28;20178;-59
2022/05/22 13:17:30;;;;;;;1.73;0.95;;;24.30;83.30;;;;;;5054139;28;20167;-59